createdAt,value
2022-08-26T00:01:46.660Z,24.10
2022-08-26T00:04:13.821Z,24.30
2022-08-26T00:06:42.611Z,24.30
2022-08-26T00:09:16.070Z,24.10
2022-08-26T00:11:44.134Z,24.30
2022-08-26T00:14:13.698Z,24.30
2022-08-26T00:16:47.314Z,24.30
2022-08-26T00:19:17.901Z,24.20
2022-08-26T00:21:46.009Z,24.20
2022-08-26T00:24:13.255Z,24.20
2022-08-26T00:26:41.368Z,24.30
2022-08-26T00:29:08.676Z,24.10
2022-08-26T00:31:36.698Z,24.20
2022-08-26T00:34:04.471Z,24.20
2022-08-26T00:36:31.999Z,24.20
2022-08-26T00:38:59.057Z,24.20
2022-08-26T00:41:25.949Z,24.20
2022-08-26T00:43:53.371Z,24.30
2022-08-26T00:46:28.850Z,24.20
2022-08-26T00:49:04.236Z,24.30
2022-08-26T00:51:48.649Z,25.30
2022-08-26T00:54:19.915Z,24.30
2022-08-26T00:57:16.470Z,24.30
2022-08-26T00:59:46.848Z,24.30
2022-08-26T01:02:20.042Z,23.70
2022-08-26T01:04:56.264Z,24.40
2022-08-26T01:07:26.386Z,24.20
2022-08-26T01:09:55.095Z,24.30
2022-08-26T01:12:22.849Z,24.40
2022-08-26T01:14:50.067Z,24.30
2022-08-26T01:17:17.323Z,24.20
2022-08-26T01:19:49.078Z,24.30
2022-08-26T01:22:53.159Z,26.00
2022-08-26T01:25:21.137Z,24.30
2022-08-26T01:27:49.058Z,24.30
2022-08-26T01:30:17.831Z,23.80
2022-08-26T01:32:46.031Z,24.30
2022-08-26T01:35:12.900Z,24.40
2022-08-26T01:37:40.597Z,24.30
2022-08-26T01:40:13.825Z,24.30
2022-08-26T01:42:42.067Z,24.30
2022-08-26T01:45:16.510Z,24.30
2022-08-26T01:47:43.547Z,24.40
2022-08-26T01:50:28.272Z,24.40
2022-08-26T01:53:00.835Z,24.30
2022-08-26T01:55:32.824Z,24.30
2022-08-26T01:58:05.470Z,24.40
2022-08-26T02:00:34.195Z,24.40
2022-08-26T02:03:17.939Z,24.40
2022-08-26T02:05:48.826Z,24.30
2022-08-26T02:08:22.717Z,24.40
2022-08-26T02:10:51.858Z,24.30
2022-08-26T02:13:23.021Z,24.30
2022-08-26T02:15:53.160Z,24.30
2022-08-26T02:18:20.534Z,24.30
2022-08-26T02:20:47.463Z,24.30
2022-08-26T02:23:18.588Z,24.40
2022-08-26T02:26:08.821Z,24.40
2022-08-26T02:28:58.282Z,24.30
2022-08-26T02:31:25.403Z,24.40
2022-08-26T02:33:52.231Z,24.40
2022-08-26T02:36:28.465Z,24.30
2022-08-26T02:38:55.640Z,24.30
2022-08-26T02:41:23.031Z,24.40
2022-08-26T02:43:50.146Z,24.30
2022-08-26T02:46:27.931Z,24.60
2022-08-26T02:48:58.514Z,24.30
2022-08-26T02:51:25.389Z,24.50
2022-08-26T02:53:52.250Z,24.40
2022-08-26T02:56:19.420Z,24.40
2022-08-26T02:58:46.241Z,24.30
2022-08-26T03:01:29.885Z,24.30
2022-08-26T03:03:57.626Z,24.40
2022-08-26T03:06:24.799Z,24.30
2022-08-26T03:08:52.739Z,24.30
2022-08-26T03:11:20.037Z,24.30
2022-08-26T03:13:46.887Z,24.30
2022-08-26T03:16:14.368Z,24.50
2022-08-26T03:18:41.964Z,24.40
2022-08-26T03:21:12.055Z,24.40
2022-08-26T03:23:40.112Z,24.40
2022-08-26T03:26:07.730Z,24.40
2022-08-26T03:28:58.179Z,24.30
2022-08-26T03:31:25.438Z,24.00
2022-08-26T03:33:52.872Z,24.30
2022-08-26T03:36:22.107Z,24.30
2022-08-26T03:38:49.101Z,24.30
2022-08-26T03:41:16.099Z,24.30
2022-08-26T03:43:43.631Z,24.40
2022-08-26T03:46:12.446Z,24.40
2022-08-26T03:48:39.991Z,24.30
2022-08-26T03:51:13.944Z,24.40
2022-08-26T03:53:45.759Z,24.30
2022-08-26T03:56:13.074Z,24.40
2022-08-26T03:58:42.829Z,24.30
2022-08-26T04:01:11.007Z,24.40
2022-08-26T04:03:57.061Z,24.30
2022-08-26T04:06:38.613Z,24.40
2022-08-26T04:09:14.898Z,24.30
2022-08-26T04:11:44.143Z,24.40
2022-08-26T04:14:17.643Z,24.40
2022-08-26T04:16:47.823Z,24.40
2022-08-26T04:19:15.835Z,24.30
2022-08-26T04:21:43.704Z,24.40
2022-08-26T04:24:12.998Z,24.40
2022-08-26T04:26:42.825Z,24.30
2022-08-26T04:29:18.089Z,24.30
2022-08-26T04:31:47.984Z,24.40
2022-08-26T04:34:15.586Z,24.30
2022-08-26T04:36:43.085Z,24.40
2022-08-26T04:39:12.397Z,24.30
2022-08-26T04:41:40.016Z,24.40
2022-08-26T04:44:07.627Z,24.40
2022-08-26T04:46:35.364Z,24.40
2022-08-26T04:49:08.484Z,24.30
2022-08-26T04:51:36.863Z,24.30
2022-08-26T04:54:04.386Z,24.30
2022-08-26T04:56:37.220Z,24.40
2022-08-26T04:59:07.908Z,24.30
2022-08-26T05:01:49.867Z,24.40
2022-08-26T05:04:19.092Z,24.30
2022-08-26T05:06:49.454Z,24.30
2022-08-26T05:09:18.495Z,24.40
2022-08-26T05:11:48.411Z,24.40
2022-08-26T05:14:19.659Z,24.40
2022-08-26T05:16:47.980Z,24.30
2022-08-26T05:19:18.894Z,24.40
2022-08-26T05:21:47.661Z,24.30
2022-08-26T05:24:14.999Z,24.50
2022-08-26T05:26:42.452Z,24.40
2022-08-26T05:29:11.776Z,24.40
2022-08-26T05:31:38.689Z,24.50
2022-08-26T05:34:05.907Z,24.30
2022-08-26T05:36:35.147Z,24.40
2022-08-26T05:39:05.281Z,24.40
2022-08-26T05:41:36.187Z,24.50
2022-08-26T05:44:06.835Z,24.50
2022-08-26T05:46:35.056Z,24.30
2022-08-26T05:49:02.647Z,24.50
2022-08-26T05:51:30.565Z,24.40
2022-08-26T05:54:00.743Z,24.30
2022-08-26T05:56:28.619Z,24.40
2022-08-26T05:58:58.345Z,24.50
2022-08-26T06:01:28.046Z,24.40
2022-08-26T06:04:01.732Z,24.40
2022-08-26T06:06:31.827Z,24.40
2022-08-26T06:09:00.381Z,24.30
2022-08-26T06:11:32.288Z,24.40
2022-08-26T06:14:03.792Z,24.40
2022-08-26T06:16:34.640Z,24.30
2022-08-26T06:19:03.234Z,24.30
2022-08-26T06:21:32.855Z,24.20
2022-08-26T06:24:27.215Z,24.20
2022-08-26T06:27:02.808Z,24.20
2022-08-26T06:29:33.482Z,24.10
2022-08-26T06:32:01.207Z,24.10
2022-08-26T06:34:30.433Z,24.10
2022-08-26T06:37:02.143Z,23.80
2022-08-26T06:39:30.704Z,24.00
2022-08-26T06:42:02.710Z,23.70
2022-08-26T06:44:34.110Z,23.80
2022-08-26T06:47:00.980Z,23.70
2022-08-26T06:49:27.901Z,23.70
2022-08-26T06:52:00.152Z,23.60
2022-08-26T06:54:30.122Z,23.60
2022-08-26T06:56:57.881Z,23.60
2022-08-26T06:59:25.636Z,23.80
2022-08-26T07:01:52.610Z,23.70
2022-08-26T07:06:52.851Z,23.90
2022-08-26T07:09:21.922Z,24.00
2022-08-26T07:11:49.668Z,24.10
2022-08-26T07:14:21.550Z,24.10
2022-08-26T07:16:50.479Z,24.10
2022-08-26T07:19:30.066Z,24.10
2022-08-26T07:22:02.115Z,24.20
2022-08-26T07:24:29.394Z,24.10
2022-08-26T07:27:00.604Z,24.30
2022-08-26T07:29:28.583Z,24.10
2022-08-26T07:31:56.330Z,24.20
2022-08-26T07:34:24.621Z,24.20
2022-08-26T07:36:53.438Z,24.30
2022-08-26T07:39:22.271Z,24.30
2022-08-26T07:41:49.188Z,24.30
2022-08-26T07:44:16.672Z,24.30
2022-08-26T07:49:20.256Z,24.30
2022-08-26T07:51:47.343Z,24.30
2022-08-26T07:54:14.117Z,24.20
2022-08-26T07:56:40.874Z,24.40
2022-08-26T07:59:13.826Z,24.40
2022-08-26T08:01:44.967Z,24.40
2022-08-26T08:04:14.387Z,24.50
2022-08-26T08:06:41.540Z,24.50
2022-08-26T08:09:13.256Z,24.30
2022-08-26T08:11:41.355Z,24.40
2022-08-26T08:14:08.504Z,24.50
2022-08-26T08:16:45.982Z,24.30
2022-08-26T08:19:14.739Z,24.40
2022-08-26T08:21:42.789Z,24.40
2022-08-26T08:24:10.006Z,24.40
2022-08-26T08:26:37.423Z,24.50
2022-08-26T08:29:04.406Z,24.30
2022-08-26T08:34:19.877Z,24.40
2022-08-26T08:36:48.847Z,24.40
2022-08-26T08:39:17.322Z,24.50
2022-08-26T08:42:12.750Z,24.40
2022-08-26T08:44:44.459Z,24.40
2022-08-26T08:47:42.786Z,24.50
2022-08-26T08:50:35.123Z,24.50
2022-08-26T08:53:11.822Z,20.10
2022-08-26T08:55:51.390Z,24.50
2022-08-26T08:58:21.962Z,24.50
2022-08-26T09:01:00.184Z,24.50
2022-08-26T09:03:57.288Z,24.50
2022-08-26T09:06:25.245Z,24.50
2022-08-26T09:08:56.262Z,24.50
2022-08-26T09:11:23.420Z,24.90
2022-08-26T09:13:53.347Z,24.50
2022-08-26T09:16:23.927Z,24.50
2022-08-26T09:19:14.147Z,24.50
2022-08-26T09:21:41.160Z,24.50
2022-08-26T09:24:11.257Z,24.50
2022-08-26T09:26:45.549Z,24.50
2022-08-26T09:29:31.744Z,24.60
2022-08-26T09:32:23.974Z,23.60
2022-08-26T09:35:00.255Z,24.60
2022-08-26T09:37:36.687Z,24.50
2022-08-26T09:40:31.120Z,24.60
2022-08-26T09:43:22.347Z,24.60
2022-08-26T09:46:20.854Z,24.60
2022-08-26T09:48:48.089Z,24.60
2022-08-26T09:51:23.050Z,24.50
2022-08-26T09:53:53.331Z,24.50
2022-08-26T09:56:28.945Z,24.60
2022-08-26T09:58:57.627Z,24.70
2022-08-26T10:01:35.250Z,24.60
2022-08-26T10:04:22.498Z,24.60
2022-08-26T10:07:09.750Z,24.60
2022-08-26T10:09:40.669Z,24.60
2022-08-26T10:12:15.758Z,24.70
2022-08-26T10:14:48.428Z,24.70
2022-08-26T10:17:26.582Z,24.70
2022-08-26T10:19:59.627Z,24.70
2022-08-26T10:22:39.382Z,25.90
2022-08-26T10:25:12.296Z,24.60
2022-08-26T10:28:20.755Z,24.60
2022-08-26T10:30:56.038Z,24.70
2022-08-26T10:33:23.433Z,24.70
2022-08-26T10:35:56.426Z,24.70
2022-08-26T10:38:34.213Z,24.60
2022-08-26T10:41:00.963Z,24.70
2022-08-26T10:43:42.679Z,24.70
2022-08-26T10:46:16.237Z,24.70
2022-08-26T10:48:49.578Z,24.80
2022-08-26T10:51:38.485Z,24.80
2022-08-26T10:54:09.502Z,24.80
2022-08-26T10:56:53.659Z,24.80
2022-08-26T10:59:43.721Z,24.70
2022-08-26T11:02:22.823Z,24.80
2022-08-26T11:05:02.827Z,24.70
2022-08-26T11:07:39.064Z,24.80
2022-08-26T11:10:06.663Z,24.80
2022-08-26T11:12:36.289Z,24.70
2022-08-26T11:15:13.973Z,24.80
2022-08-26T11:17:45.194Z,24.60
2022-08-26T11:20:29.900Z,24.70
2022-08-26T11:23:22.616Z,24.70
2022-08-26T11:25:56.994Z,24.60
2022-08-26T11:28:35.886Z,24.80
2022-08-26T11:31:11.915Z,24.80
2022-08-26T11:33:52.670Z,24.80
2022-08-26T11:39:36.511Z,24.70
2022-08-26T11:42:28.427Z,24.80
2022-08-26T11:44:58.238Z,24.90
2022-08-26T11:47:29.434Z,24.80
2022-08-26T11:50:13.575Z,24.70
2022-08-26T11:52:40.937Z,24.90
2022-08-26T11:55:14.696Z,24.80
2022-08-26T11:57:49.066Z,24.80
2022-08-26T12:00:23.123Z,24.80
2022-08-26T12:02:52.656Z,24.90
2022-08-26T12:05:30.998Z,24.70
2022-08-26T12:08:06.267Z,24.80
2022-08-26T12:10:34.414Z,24.80
2022-08-26T12:13:03.359Z,24.70
2022-08-26T12:15:32.362Z,24.80
2022-08-26T12:18:17.778Z,24.90
2022-08-26T12:20:48.443Z,24.80
2022-08-26T12:23:34.083Z,24.90
2022-08-26T12:26:10.370Z,24.90
2022-08-26T12:28:46.403Z,24.90
2022-08-26T12:31:21.724Z,25.00
2022-08-26T12:33:49.470Z,24.90
2022-08-26T12:36:39.098Z,24.80
2022-08-26T12:39:12.894Z,24.80
2022-08-26T12:41:41.668Z,24.90
2022-08-26T12:44:08.658Z,24.80
2022-08-26T12:51:33.287Z,24.70
2022-08-26T12:54:00.343Z,24.90
2022-08-26T12:56:36.608Z,24.90
2022-08-26T12:59:25.543Z,24.70
2022-08-26T13:01:53.067Z,24.80
2022-08-26T13:04:38.839Z,24.70
2022-08-26T13:07:18.404Z,24.80
2022-08-26T13:09:45.178Z,24.70
2022-08-26T13:12:24.159Z,24.80
2022-08-26T13:14:50.975Z,24.60
2022-08-26T13:17:17.843Z,24.80
2022-08-26T13:19:44.661Z,24.70
2022-08-26T13:24:44.129Z,24.70
2022-08-26T13:27:14.299Z,24.80
2022-08-26T13:34:38.132Z,26.00
2022-08-26T13:37:05.916Z,24.70
2022-08-26T13:39:33.103Z,24.60
2022-08-26T13:42:00.155Z,24.60
2022-08-26T13:49:22.574Z,24.80
2022-08-26T13:54:16.687Z,24.70
2022-08-26T14:04:07.342Z,24.70
2022-08-26T14:06:34.227Z,24.70
2022-08-26T14:09:00.968Z,24.70
2022-08-26T14:11:30.149Z,24.60
2022-08-26T14:14:16.747Z,24.70
2022-08-26T14:16:51.329Z,24.70
2022-08-26T14:19:29.580Z,24.60
2022-08-26T14:21:56.542Z,24.70
2022-08-26T14:24:23.673Z,24.60
2022-08-26T14:26:50.483Z,24.70
2022-08-26T14:29:17.376Z,24.70
2022-08-26T14:31:44.601Z,24.60
2022-08-26T14:34:13.339Z,24.60
2022-08-26T14:36:40.072Z,24.60
2022-08-26T14:39:10.134Z,24.70
2022-08-26T14:41:45.006Z,24.70
2022-08-26T14:44:14.870Z,24.70
2022-08-26T14:46:49.638Z,24.70
2022-08-26T14:49:18.851Z,24.60
2022-08-26T14:51:46.114Z,24.70
2022-08-26T14:54:14.664Z,24.70
2022-08-26T14:56:58.518Z,24.60
2022-08-26T14:59:26.800Z,24.70
2022-08-26T15:01:54.768Z,24.50
2022-08-26T15:04:23.026Z,24.70
2022-08-26T15:06:51.205Z,24.70
2022-08-26T15:09:18.075Z,24.70
2022-08-26T15:14:19.582Z,24.60
2022-08-26T15:16:49.410Z,24.60
2022-08-26T15:19:16.899Z,24.80
2022-08-26T15:26:40.497Z,24.60
2022-08-26T15:29:07.417Z,24.80
2022-08-26T15:31:34.860Z,24.70
2022-08-26T15:34:05.759Z,24.80
2022-08-26T15:36:33.704Z,24.60
2022-08-26T15:39:01.322Z,24.70
2022-08-26T15:43:57.487Z,24.60
2022-08-26T15:46:25.410Z,24.70
2022-08-26T15:48:52.589Z,24.70
2022-08-26T15:51:24.334Z,24.60
2022-08-26T15:53:54.231Z,24.60
2022-08-26T15:56:25.788Z,24.70
2022-08-26T15:58:54.956Z,24.70
2022-08-26T16:01:27.122Z,24.70
2022-08-26T16:03:56.262Z,24.80
2022-08-26T16:06:27.332Z,24.70
2022-08-26T16:08:56.039Z,24.70
2022-08-26T16:11:23.895Z,24.60
2022-08-26T16:13:50.857Z,24.60
2022-08-26T16:21:22.980Z,24.80
2022-08-26T16:23:51.527Z,24.80
2022-08-26T16:26:22.340Z,24.80
2022-08-26T16:33:44.582Z,24.70
2022-08-26T16:36:11.783Z,24.80
2022-08-26T16:41:07.167Z,24.70
2022-08-26T16:43:34.831Z,24.70
2022-08-26T16:46:02.020Z,24.80
2022-08-26T16:48:28.836Z,24.80
2022-08-26T16:50:56.686Z,24.80
2022-08-26T16:53:24.539Z,24.70
2022-08-26T16:55:52.404Z,24.60
2022-08-26T16:58:21.958Z,24.80
2022-08-26T17:15:37.880Z,24.70
2022-08-26T17:18:05.097Z,24.70
2022-08-26T17:22:59.338Z,24.70
2022-08-26T17:25:30.031Z,24.80
2022-08-26T17:27:59.121Z,24.70
2022-08-26T17:30:26.111Z,24.80
2022-08-26T17:32:54.426Z,24.80
2022-08-26T17:37:48.856Z,24.70
2022-08-26T17:40:22.751Z,24.80
2022-08-26T17:42:51.654Z,24.70
2022-08-26T17:47:48.430Z,24.80
2022-08-26T17:50:18.174Z,24.70
2022-08-26T17:55:15.344Z,24.70
2022-08-26T18:00:26.278Z,24.70
2022-08-26T18:02:54.805Z,24.70
2022-08-26T18:07:51.435Z,24.70
2022-08-26T18:10:20.006Z,24.70
2022-08-26T18:12:46.968Z,24.80
2022-08-26T18:15:16.100Z,24.70
2022-08-26T18:17:44.126Z,24.70
2022-08-26T18:20:15.687Z,24.70
2022-08-26T18:25:10.337Z,24.80
2022-08-26T18:27:38.145Z,24.80
2022-08-26T18:30:16.799Z,24.70
2022-08-26T18:32:44.226Z,24.80
2022-08-26T18:35:12.043Z,24.70
2022-08-26T18:40:09.085Z,24.70
2022-08-26T18:42:36.515Z,24.60
2022-08-26T18:45:05.222Z,24.80
2022-08-26T18:47:33.139Z,24.70
2022-08-26T18:50:01.222Z,24.70
2022-08-26T18:52:28.556Z,24.60
2022-08-26T18:54:55.469Z,24.70
2022-08-26T18:57:23.466Z,24.60
2022-08-26T18:59:50.220Z,24.70
2022-08-26T19:02:17.317Z,24.70
2022-08-26T19:07:11.371Z,24.70
2022-08-26T19:09:39.202Z,24.70
2022-08-26T19:12:06.271Z,24.70
2022-08-26T19:14:35.976Z,24.60
2022-08-26T19:17:03.656Z,24.70
2022-08-26T19:19:31.603Z,24.70
2022-08-26T19:21:58.575Z,24.70
2022-08-26T19:24:27.282Z,24.60
2022-08-26T19:26:59.305Z,24.50
2022-08-26T19:29:29.301Z,24.30
2022-08-26T19:31:56.514Z,24.40
2022-08-26T19:34:24.037Z,24.20
2022-08-26T19:36:53.135Z,24.10
2022-08-26T19:39:21.140Z,24.00
2022-08-26T19:44:37.913Z,23.90
2022-08-26T19:47:07.454Z,23.90
2022-08-26T19:49:34.859Z,23.80
2022-08-26T19:52:02.895Z,23.80
2022-08-26T19:54:30.199Z,23.80
2022-08-26T19:59:24.657Z,23.60
2022-08-26T20:02:00.782Z,23.60
2022-08-26T20:04:30.203Z,23.50
2022-08-26T20:06:57.745Z,23.50
2022-08-26T20:09:29.544Z,23.50
2022-08-26T20:11:56.840Z,23.40
2022-08-26T20:14:24.703Z,23.60
2022-08-26T20:16:51.584Z,23.40
2022-08-26T20:19:37.788Z,23.50
2022-08-26T20:22:05.505Z,23.40
2022-08-26T20:24:32.913Z,23.40
2022-08-26T20:27:03.311Z,23.40
2022-08-26T20:29:32.849Z,23.30
2022-08-26T20:31:59.723Z,23.30
2022-08-26T20:34:27.828Z,23.30
2022-08-26T20:39:22.169Z,23.40
2022-08-26T20:41:49.470Z,23.20
2022-08-26T20:44:17.506Z,23.10
2022-08-26T20:46:45.015Z,23.10
2022-08-26T20:49:13.301Z,23.20
2022-08-26T20:51:43.065Z,23.00
2022-08-26T20:54:12.237Z,23.20
2022-08-26T20:56:39.984Z,23.10
2022-08-26T20:59:07.944Z,23.20
2022-08-26T21:01:36.886Z,23.10
2022-08-26T21:04:12.366Z,23.00
2022-08-26T21:06:39.486Z,23.10
2022-08-26T21:14:13.412Z,23.00
2022-08-26T21:16:43.880Z,23.10
2022-08-26T21:19:13.930Z,23.00
2022-08-26T21:26:36.306Z,23.00
2022-08-26T21:29:03.968Z,22.90
2022-08-26T21:31:31.952Z,22.90
2022-08-26T21:33:59.455Z,23.10
2022-08-26T21:38:56.856Z,23.40
2022-08-26T21:41:26.010Z,23.20
2022-08-26T21:43:55.537Z,23.50
2022-08-26T21:46:24.549Z,23.40
2022-08-26T21:48:59.631Z,23.30
2022-08-26T21:51:30.347Z,23.40
2022-08-26T21:53:58.770Z,23.60
2022-08-26T21:56:27.755Z,23.60
2022-08-26T21:58:56.067Z,23.40
2022-08-26T22:01:25.410Z,23.40
2022-08-26T22:03:53.007Z,23.50
2022-08-26T22:06:23.924Z,23.80
2022-08-26T22:08:51.259Z,23.70
2022-08-26T22:13:46.843Z,23.70
2022-08-26T22:16:14.302Z,23.50
2022-08-26T22:18:43.715Z,23.70
2022-08-26T22:21:14.983Z,23.80
2022-08-26T22:23:43.360Z,23.80
2022-08-26T22:26:14.264Z,23.70
2022-08-26T22:28:41.123Z,23.80
2022-08-26T22:31:11.279Z,23.80
2022-08-26T22:33:43.199Z,23.60
2022-08-26T22:36:22.182Z,23.90
2022-08-26T22:38:50.553Z,23.80
2022-08-26T22:43:45.932Z,23.90
2022-08-26T22:46:31.035Z,23.90
2022-08-26T22:48:57.902Z,23.90
2022-08-26T22:51:24.845Z,23.60
2022-08-26T22:53:52.607Z,23.80
2022-08-26T22:56:21.120Z,23.90
2022-08-26T22:58:48.215Z,23.60
2022-08-26T23:03:44.425Z,23.80
2022-08-26T23:06:11.326Z,23.80
2022-08-26T23:08:40.301Z,23.90
2022-08-26T23:11:09.270Z,23.80
2022-08-26T23:13:36.454Z,23.90
2022-08-26T23:16:06.555Z,23.80
2022-08-26T23:18:33.358Z,23.90
2022-08-26T23:23:27.630Z,23.80
2022-08-26T23:25:56.458Z,23.80
2022-08-26T23:28:23.636Z,23.80
2022-08-26T23:30:52.355Z,24.00
2022-08-26T23:33:19.266Z,23.90
2022-08-26T23:35:46.210Z,24.00
2022-08-26T23:38:14.252Z,23.90
2022-08-26T23:40:41.857Z,23.80
2022-08-26T23:43:11.415Z,23.70
2022-08-26T23:45:38.848Z,23.80
2022-08-26T23:50:53.143Z,24.00
2022-08-26T23:53:22.277Z,24.00
2022-08-26T23:55:51.330Z,23.90
2022-08-26T23:58:19.727Z,24.00
